Time;durP1;ratioP1;P1;durP2;ratioP2;P2;SDS_P1;SDS_P2;PMS_P1;PMS_P2;Temp;Humidity;BMP_temperature;BMP_pressure;BME280_temperature;BME280_humidity;BME280_pressure;Samples;Min_cycle;Max_cycle;Signal;HPM_P1;HPM_P2
2024/01/17 00:01:10;;;;;;;27.95;26.25;;;;;;;-4.69;100.00;101366.25;5046036;28;20056;-56
2024/01/17 00:03:37;;;;;;;24.50;23.10;;;;;;;-4.76;100.00;101351.97;5045937;28;20053;-61
2024/01/17 00:06:04;;;;;;;25.25;23.65;;;;;;;-4.77;100.00;101358.09;5044846;28;20433;-56
2024/01/17 00:08:31;;;;;;;25.02;23.42;;;;;;;-4.78;100.00;101352.97;5046290;28;20057;-56
2024/01/17 00:10:58;;;;;;;27.83;26.17;;;;;;;-4.68;100.00;101334.19;5042557;28;20049;-56
2024/01/17 00:13:25;;;;;;;26.50;24.83;;;;;;;-4.79;100.00;101333.16;5046757;28;20796;-61
2024/01/17 00:15:56;;;;;;;26.95;25.25;;;;;;;-4.63;100.00;101329.56;5044254;28;20072;-61
2024/01/17 00:18:23;;;;;;;27.42;25.73;;;;;;;-4.67;100.00;101330.66;5044257;28;20461;-56
2024/01/17 00:20:50;;;;;;;27.50;25.83;;;;;;;-5.03;100.00;101325.91;5046615;28;20122;-61
2024/01/17 00:23:17;;;;;;;25.00;23.40;;;;;;;-4.80;100.00;101323.75;5046312;28;20049;-61
2024/01/17 00:25:45;;;;;;;28.27;26.67;;;;;;;-4.87;100.00;101329.28;5046244;28;20446;-61
2024/01/17 00:28:12;;;;;;;26.08;24.48;;;;;;;-5.13;100.00;101325.63;5045858;28;20148;-56
2024/01/17 00:30:38;;;;;;;23.63;22.23;;;;;;;-5.18;100.00;101332.00;5045696;28;20053;-56
2024/01/17 00:33:07;;;;;;;25.45;23.85;;;;;;;-5.11;100.00;101326.38;5045725;28;20713;-56
2024/01/17 00:35:33;;;;;;;25.77;24.08;;;;;;;-4.93;100.00;101321.88;5045786;28;20059;-56
2024/01/17 00:38:00;;;;;;;25.40;23.90;;;;;;;-4.93;100.00;101331.38;5046190;28;20446;-62
2024/01/17 00:40:30;;;;;;;28.77;27.17;;;;;;;-5.31;100.00;101330.13;5046178;28;20419;-61
2024/01/17 00:42:57;;;;;;;28.77;26.92;;;;;;;-5.36;100.00;101329.53;5044375;28;20423;-61
2024/01/17 00:45:24;;;;;;;27.17;25.58;;;;;;;-5.64;100.00;101326.88;5045261;28;20434;-61
2024/01/17 00:47:51;;;;;;;28.38;26.77;;;;;;;-5.56;100.00;101328.13;5039850;28;20056;-61
2024/01/17 00:50:19;;;;;;;26.35;24.58;;;;;;;-5.34;100.00;101319.13;5045227;28;20048;-57
2024/01/17 00:52:46;;;;;;;27.30;25.48;;;;;;;-5.55;100.00;101321.19;5045373;28;20143;-61
2024/01/17 00:55:13;;;;;;;27.73;25.92;;;;;;;-5.55;100.00;101327.19;5046077;28;20048;-62
2024/01/17 00:57:40;;;;;;;26.02;24.52;;;;;;;-5.38;100.00;101318.47;5045476;28;20049;-56
2024/01/17 01:00:08;;;;;;;24.27;22.83;;;;;;;-5.26;100.00;101321.25;5045186;28;21644;-62
2024/01/17 01:02:35;;;;;;;24.02;22.45;;;;;;;-4.44;100.00;101316.31;5044817;28;20103;-56
2024/01/17 01:05:02;;;;;;;27.63;25.77;;;;;;;-4.58;100.00;101313.72;5045629;28;20057;-56
2024/01/17 01:07:30;;;;;;;23.27;21.77;;;;;;;-4.62;100.00;101317.44;5043257;28;20049;-57
2024/01/17 01:09:57;;;;;;;23.10;21.60;;;;;;;-4.47;100.00;101316.50;5045197;28;20068;-61
2024/01/17 01:12:24;;;;;;;23.17;21.67;;;;;;;-4.67;100.00;101322.06;5044792;28;20060;-56
2024/01/17 01:14:51;;;;;;;24.02;22.42;;;;;;;-4.59;100.00;101306.88;5045264;28;20447;-61
2024/01/17 01:17:17;;;;;;;26.08;24.38;;;;;;;-4.61;100.00;101308.72;5043230;28;20056;-56
2024/01/17 01:19:45;;;;;;;24.75;22.95;;;;;;;-5.18;100.00;101313.88;5043596;28;20411;-56
2024/01/17 01:22:11;;;;;;;24.63;23.23;;;;;;;-5.33;100.00;101305.22;5045174;28;20052;-61
2024/01/17 01:24:43;;;;;;;23.40;21.80;;;;;;;-5.10;100.00;101307.31;5041182;28;20053;-61
2024/01/17 01:27:10;;;;;;;27.02;25.17;;;;;;;-5.22;100.00;101308.03;5046268;28;20430;-56
2024/01/17 01:29:36;;;;;;;25.27;23.67;;;;;;;-5.31;100.00;101301.63;5051974;28;20055;-56
2024/01/17 01:32:04;;;;;;;24.67;23.17;;;;;;;-5.12;100.00;101306.56;5051177;28;20052;-56
2024/01/17 01:34:31;;;;;;;25.52;23.92;;;;;;;-5.03;100.00;101302.59;5052244;28;20056;-56
2024/01/17 01:36:57;;;;;;;29.23;27.42;;;;;;;-4.89;100.00;101302.63;5051583;28;20049;-56
2024/01/17 01:39:24;;;;;;;27.98;26.23;;;;;;;-4.91;100.00;101294.09;5051400;28;20053;-61
2024/01/17 01:41:52;;;;;;;25.00;23.40;;;;;;;-4.88;100.00;101293.91;5051914;28;20080;-56
2024/01/17 01:44:19;;;;;;;25.35;23.75;;;;;;;-5.18;100.00;101299.16;5051136;28;20056;-56
2024/01/17 01:46:48;;;;;;;23.27;21.88;;;;;;;-5.37;100.00;101299.41;5048290;28;20219;-56
2024/01/17 01:49:16;;;;;;;23.70;22.20;;;;;;;-5.17;100.00;101294.84;5045675;28;20505;-56
2024/01/17 01:51:44;;;;;;;26.77;24.98;;;;;;;-5.45;100.00;101283.47;5052637;28;20506;-61
2024/01/17 01:54:15;;;;;;;24.38;22.77;;;;;;;-5.38;100.00;101266.69;5048388;28;20057;-56
2024/01/17 01:56:43;;;;;;;22.15;20.75;;;;;;;-5.36;100.00;101276.94;5051375;28;20053;-62
2024/01/17 01:59:12;;;;;;;21.67;20.17;;;;;;;-5.33;100.00;101275.00;5048034;28;20462;-61
2024/01/17 02:01:40;;;;;;;21.95;20.52;;;;;;;-5.75;100.00;101275.72;5051749;28;20568;-56
2024/01/17 02:04:06;;;;;;;22.13;20.73;;;;;;;-5.83;100.00;101281.34;5051056;28;20052;-61
2024/01/17 02:06:35;;;;;;;26.17;24.58;;;;;;;-6.17;100.00;101281.56;5051672;28;20053;-56
2024/01/17 02:09:03;;;;;;;24.58;22.80;;;;;;;-6.40;100.00;101281.06;5051201;28;20088;-61
2024/01/17 02:11:30;;;;;;;24.60;22.65;;;;;;;-6.54;100.00;101292.13;5049792;28;20044;-61
2024/01/17 02:13:58;;;;;;;23.35;21.95;;;;;;;-6.40;100.00;101294.00;5051229;28;20052;-61
2024/01/17 02:16:26;;;;;;;28.77;26.42;;;;;;;-6.26;100.00;101301.03;5051680;28;20464;-56
2024/01/17 02:18:54;;;;;;;24.48;22.77;;;;;;;-6.22;100.00;101297.34;5051828;28;20528;-61
2024/01/17 02:21:20;;;;;;;25.98;24.23;;;;;;;-6.33;100.00;101295.31;5051390;28;20440;-56
2024/01/17 02:23:51;;;;;;;25.10;23.60;;;;;;;-6.24;100.00;101289.66;5051408;28;20059;-61
2024/01/17 02:26:18;;;;;;;26.45;24.63;;;;;;;-6.18;100.00;101285.06;5051302;28;20399;-61
2024/01/17 02:28:45;;;;;;;24.15;22.65;;;;;;;-6.25;100.00;101279.41;5051410;28;20526;-56
2024/01/17 02:31:14;;;;;;;24.92;23.48;;;;;;;-6.14;100.00;101271.91;5050502;28;20060;-61
2024/01/17 02:33:41;;;;;;;26.63;25.13;;;;;;;-6.06;100.00;101263.72;5050893;28;20434;-61
2024/01/17 02:36:08;;;;;;;23.55;21.90;;;;;;;-5.98;100.00;101256.34;5049177;28;20049;-61
2024/01/17 02:38:35;;;;;;;23.50;22.15;;;;;;;-6.19;100.00;101249.81;5049010;28;20503;-61
2024/01/17 02:41:03;;;;;;;23.83;22.33;;;;;;;-6.18;100.00;101262.63;5042447;28;20495;-61
2024/01/17 02:43:30;;;;;;;25.17;23.67;;;;;;;-6.31;100.00;101253.88;5047414;28;20041;-61
2024/01/17 02:45:57;;;;;;;22.75;21.35;;;;;;;-6.08;100.00;101245.69;5047672;28;20075;-62
2024/01/17 02:48:23;;;;;;;26.92;25.42;;;;;;;-5.91;100.00;101249.06;5041911;28;20076;-61
2024/01/17 02:50:50;;;;;;;24.85;23.55;;;;;;;-5.90;100.00;101254.16;5046835;28;20049;-62
2024/01/17 02:53:17;;;;;;;23.85;22.55;;;;;;;-5.53;100.00;101258.03;5045017;28;20537;-56
2024/01/17 02:55:44;;;;;;;22.15;20.65;;;;;;;-5.87;100.00;101255.72;5047398;28;20052;-56
2024/01/17 02:58:12;;;;;;;25.58;24.17;;;;;;;-5.42;100.00;101251.41;5047542;28;20582;-57
2024/01/17 03:00:42;;;;;;;22.88;21.27;;;;;;;-5.80;100.00;101244.94;5047302;28;20057;-61
2024/01/17 03:03:11;;;;;;;23.98;22.58;;;;;;;-5.53;100.00;101242.50;5042620;28;20457;-61
2024/01/17 03:05:38;;;;;;;25.33;23.92;;;;;;;-5.44;100.00;101242.91;5047676;28;20052;-61
2024/01/17 03:08:05;;;;;;;23.58;22.27;;;;;;;-5.69;100.00;101246.06;5046798;28;20044;-61
2024/01/17 03:10:32;;;;;;;25.80;24.40;;;;;;;-5.69;100.00;101248.66;5047828;28;20465;-61
2024/01/17 03:12:59;;;;;;;27.10;25.70;;;;;;;-5.65;100.00;101243.22;5046897;28;20411;-61
2024/01/17 03:15:28;;;;;;;22.25;21.08;;;;;;;-5.85;100.00;101254.72;5045157;28;20510;-61
2024/01/17 03:17:55;;;;;;;24.80;23.50;;;;;;;-5.78;100.00;101245.69;5045073;28;20532;-61
2024/01/17 03:20:22;;;;;;;24.98;23.58;;;;;;;-6.00;100.00;101248.66;5047583;28;20524;-61
2024/01/17 03:22:52;;;;;;;27.70;26.02;;;;;;;-6.05;100.00;101252.44;5046861;28;20045;-61
2024/01/17 03:25:19;;;;;;;23.83;22.42;;;;;;;-6.19;100.00;101253.22;5047154;28;20057;-56
2024/01/17 03:27:46;;;;;;;24.38;22.98;;;;;;;-6.25;100.00;101246.63;5046477;28;20049;-56
2024/01/17 03:30:14;;;;;;;23.20;21.90;;;;;;;-6.12;100.00;101245.94;5046668;28;20060;-61
2024/01/17 03:32:43;;;;;;;27.55;25.60;;;;;;;-6.32;100.00;101245.31;5047067;28;20510;-56
2024/01/17 03:35:13;;;;;;;23.60;22.10;;;;;;;-6.45;100.00;101244.28;5047315;28;20049;-56
2024/01/17 03:37:39;;;;;;;23.05;21.65;;;;;;;-6.39;100.00;101253.47;5047215;28;20442;-56
2024/01/17 03:40:07;;;;;;;27.90;26.00;;;;;;;-6.42;100.00;101256.22;5046618;28;20064;-56
2024/01/17 03:42:34;;;;;;;27.33;25.42;;;;;;;-6.34;100.00;101267.00;5046678;28;20442;-56
2024/01/17 03:45:01;;;;;;;26.27;24.67;;;;;;;-6.25;100.00;101261.31;5046763;28;20057;-56
2024/01/17 03:47:28;;;;;;;30.52;28.73;;;;;;;-6.45;100.00;101255.47;5046345;28;20518;-61
2024/01/17 03:49:56;;;;;;;26.48;24.70;;;;;;;-6.61;100.00;101254.63;5041105;28;20049;-62
2024/01/17 03:52:23;;;;;;;24.15;22.55;;;;;;;-6.55;100.00;101254.31;5046842;28;20064;-61
2024/01/17 03:54:50;;;;;;;22.88;21.38;;;;;;;-6.70;100.00;101255.13;5046307;28;20048;-61
2024/01/17 03:57:17;;;;;;;25.63;24.02;;;;;;;-6.63;100.00;101258.22;5046522;28;20080;-62
2024/01/17 03:59:44;;;;;;;22.95;21.55;;;;;;;-6.64;100.00;101252.22;5045781;28;20075;-62
2024/01/17 04:02:13;;;;;;;23.00;21.40;;;;;;;-6.71;100.00;101251.72;5046231;28;20049;-61
2024/01/17 04:04:45;;;;;;;23.15;21.65;;;;;;;-6.81;100.00;101250.50;5046454;28;20411;-61
2024/01/17 04:07:14;;;;;;;23.98;22.40;;;;;;;-7.06;100.00;101263.06;5043897;28;20060;-64
2024/01/17 04:09:43;;;;;;;28.90;26.95;;;;;;;-7.40;100.00;101264.78;5045200;28;20060;-57
2024/01/17 04:12:13;;;;;;;23.67;22.17;;;;;;;-7.51;100.00;101272.22;5041988;28;20415;-61
2024/01/17 04:14:40;;;;;;;24.65;23.23;;;;;;;-7.43;100.00;101273.50;5046348;28;20072;-61
2024/01/17 04:17:07;;;;;;;27.33;25.38;;;;;;;-7.54;100.00;101257.72;5045174;28;20445;-61
2024/01/17 04:19:34;;;;;;;25.85;24.13;;;;;;;-7.54;100.00;101267.19;5045472;28;20102;-56
2024/01/17 04:22:01;;;;;;;23.52;21.95;;;;;;;-7.50;100.00;101267.00;5037594;28;20510;-56
2024/01/17 04:24:29;;;;;;;29.33;22.45;;;;;;;-7.46;100.00;101272.81;5045700;28;20048;-56
2024/01/17 04:26:56;;;;;;;23.60;22.00;;;;;;;-7.40;100.00;101273.34;5046064;28;20052;-56
2024/01/17 04:29:24;;;;;;;23.77;22.17;;;;;;;-7.65;100.00;101273.75;5045899;28;20057;-62
2024/01/17 04:31:51;;;;;;;29.50;27.70;;;;;;;-7.46;100.00;101272.81;5044479;28;20106;-61
2024/01/17 04:34:18;;;;;;;27.10;25.30;;;;;;;-7.39;100.00;101267.25;5045708;28;20051;-62
2024/01/17 04:36:44;;;;;;;23.80;22.40;;;;;;;-7.66;100.00;101274.63;5045997;28;20041;-56
2024/01/17 04:39:11;;;;;;;23.60;22.08;;;;;;;-7.54;100.00;101280.09;5044206;28;20487;-55
2024/01/17 04:41:39;;;;;;;24.30;22.75;;;;;;;-7.39;100.00;101277.59;5045052;28;20049;-56
2024/01/17 04:44:06;;;;;;;26.52;24.58;;;;;;;-7.38;100.00;101275.88;5042897;28;20485;-61
2024/01/17 04:46:34;;;;;;;23.17;21.65;;;;;;;-7.71;100.00;101276.63;5045679;28;20049;-56
2024/01/17 04:49:01;;;;;;;24.35;22.45;;;;;;;-8.07;100.00;101280.06;5039754;28;20049;-61
2024/01/17 04:51:28;;;;;;;22.52;20.83;;;;;;;-7.77;100.00;101281.25;5044245;28;20459;-61
2024/01/17 04:53:55;;;;;;;21.52;20.13;;;;;;;-7.80;100.00;101291.72;5044535;28;20052;-61
2024/01/17 04:56:22;;;;;;;25.60;23.65;;;;;;;-1.42;100.00;101306.25;5045300;28;20518;-56
2024/01/17 04:58:50;;;;;;;22.42;21.02;;;;;;;-6.75;100.00;101309.59;5044267;28;20056;-61
2024/01/17 05:01:17;;;;;;;27.55;26.13;;;;;;;-7.65;100.00;101299.53;5041690;28;20056;-56
2024/01/17 05:03:44;;;;;;;30.92;29.13;;;;;;;-7.68;100.00;101299.69;5041736;28;20054;-57
2024/01/17 05:06:11;;;;;;;28.15;26.42;;;;;;;-7.81;100.00;101295.19;5041151;28;20469;-56
2024/01/17 05:08:38;;;;;;;25.48;23.90;;;;;;;-7.73;100.00;101275.84;5039419;28;20048;-56
2024/01/17 05:11:05;;;;;;;25.30;23.92;;;;;;;-8.09;100.00;101284.44;5039684;28;20068;-56
2024/01/17 05:13:32;;;;;;;26.92;25.40;;;;;;;-8.04;100.00;101281.66;5042707;28;20502;-56
2024/01/17 05:16:00;;;;;;;26.08;24.52;;;;;;;-7.84;100.00;101284.13;5045312;28;20052;-61
2024/01/17 05:18:27;;;;;;;24.88;23.48;;;;;;;-7.67;100.00;101283.28;5044211;28;20041;-61
2024/01/17 05:20:54;;;;;;;29.05;27.45;;;;;;;-7.70;100.00;101288.59;5045657;28;20065;-61
2024/01/17 05:23:21;;;;;;;28.38;26.48;;;;;;;-7.70;100.00;101288.59;5046232;28;20502;-56
2024/01/17 05:25:48;;;;;;;23.85;22.45;;;;;;;-7.76;100.00;101286.31;5043081;28;20050;-61
2024/01/17 05:28:15;;;;;;;22.75;21.45;;;;;;;-7.72;100.00;101281.84;5043994;28;20110;-61
2024/01/17 05:30:42;;;;;;;22.00;20.70;;;;;;;-7.71;100.00;101286.09;5042628;28;20111;-56
2024/01/17 05:33:13;;;;;;;24.70;23.05;;;;;;;-7.76;100.00;101282.91;5045605;28;20048;-56
2024/01/17 05:35:40;;;;;;;23.50;22.10;;;;;;;-7.85;100.00;101282.44;5045959;28;20077;-61
2024/01/17 05:38:06;;;;;;;20.75;19.55;;;;;;;-7.77;100.00;101284.66;5046276;28;20068;-56
2024/01/17 05:40:33;;;;;;;21.17;19.98;;;;;;;-7.71;100.00;101280.94;5044866;28;20048;-56
2024/01/17 05:43:01;;;;;;;19.55;18.45;;;;;;;-7.64;100.00;101285.72;5043006;28;20044;-61
2024/01/17 05:45:28;;;;;;;22.40;21.10;;;;;;;-7.67;100.00;101298.75;5045656;28;20092;-61
2024/01/17 05:47:55;;;;;;;20.50;19.20;;;;;;;-7.61;100.00;101302.78;5041661;28;20059;-61
2024/01/17 05:50:25;;;;;;;20.70;19.60;;;;;;;-7.76;100.00;101304.38;5040153;28;20052;-61
2024/01/17 05:52:52;;;;;;;27.13;24.88;;;;;;;-7.93;100.00;101320.63;5043337;28;20057;-56
2024/01/17 05:55:20;;;;;;;24.95;23.35;;;;;;;-7.79;100.00;101327.72;5045367;28;20059;-61
2024/01/17 05:57:46;;;;;;;22.15;20.60;;;;;;;-7.68;100.00;101328.06;5044840;28;20529;-61
2024/01/17 06:00:14;;;;;;;20.58;19.20;;;;;;;-7.62;100.00;101321.78;5045244;28;20053;-56
2024/01/17 06:02:42;;;;;;;20.67;19.38;;;;;;;-7.46;100.00;101317.53;5044952;28;20057;-56
2024/01/17 06:05:10;;;;;;;19.55;18.40;;;;;;;-7.53;100.00;101305.84;5045404;28;20067;-61
2024/01/17 06:07:40;;;;;;;20.40;19.00;;;;;;;-7.20;100.00;101317.97;5046168;28;20041;-56
2024/01/17 06:10:08;;;;;;;20.00;18.85;;;;;;;-7.09;100.00;101315.69;5045323;28;20060;-56
2024/01/17 06:12:35;;;;;;;20.80;19.60;;;;;;;-7.01;100.00;101323.06;5044232;28;20064;-56
2024/01/17 06:15:02;;;;;;;23.83;21.42;;;;;;;-6.91;100.00;101319.09;5048359;28;20061;-56
2024/01/17 06:17:29;;;;;;;22.08;20.77;;;;;;;-7.01;100.00;101315.31;5049698;28;20067;-56
2024/01/17 06:19:55;;;;;;;25.88;23.42;;;;;;;-6.67;100.00;101322.16;5049963;28;20059;-56
2024/01/17 06:22:22;;;;;;;24.15;22.05;;;;;;;-6.39;100.00;101333.59;5049453;28;20457;-56
2024/01/17 06:24:50;;;;;;;21.80;20.50;;;;;;;-6.23;100.00;101334.47;5049353;28;20530;-62
2024/01/17 06:27:18;;;;;;;25.20;23.70;;;;;;;-6.11;100.00;101326.06;5048468;28;20569;-62
2024/01/17 06:29:45;;;;;;;25.83;24.23;;;;;;;-5.63;100.00;101334.53;5046822;28;20053;-56
2024/01/17 06:32:12;;;;;;;24.58;23.17;;;;;;;-5.25;100.00;101338.47;5048460;28;20052;-62
2024/01/17 06:34:43;;;;;;;25.10;23.35;;;;;;;-4.96;100.00;101336.75;5045895;28;20053;-61
2024/01/17 06:37:10;;;;;;;25.00;23.50;;;;;;;-4.91;100.00;101324.38;5046299;28;20045;-56
2024/01/17 06:39:37;;;;;;;27.95;26.00;;;;;;;-4.34;100.00;101326.13;5045782;28;20510;-56
2024/01/17 06:42:05;;;;;;;35.60;32.75;;;;;;;-3.60;100.00;101324.88;5048768;28;20060;-62
2024/01/17 06:44:32;;;;;;;30.05;27.88;;;;;;;-3.61;100.00;101321.47;5047649;28;20044;-62
2024/01/17 06:46:59;;;;;;;33.75;30.88;;;;;;;-3.52;100.00;101320.84;5044679;28;20057;-56
2024/01/17 06:49:26;;;;;;;32.67;30.50;;;;;;;-3.67;100.00;101313.25;5043333;28;20053;-57
2024/01/17 06:51:53;;;;;;;33.38;30.83;;;;;;;-2.71;100.00;101308.56;5047684;28;20049;-56
2024/01/17 06:54:20;;;;;;;36.47;34.10;;;;;;;-2.35;100.00;101306.00;5048435;28;20055;-61
2024/01/17 06:56:47;;;;;;;32.45;30.25;;;;;;;-1.97;100.00;101312.03;5048043;28;20055;-58
2024/01/17 06:59:16;;;;;;;32.20;29.30;;;;;;;-2.00;100.00;101307.88;5048154;28;20502;-57
2024/01/17 07:01:43;;;;;;;29.90;27.85;;;;;;;-2.15;100.00;101309.81;5047809;28;20572;-62
2024/01/17 07:04:11;;;;;;;29.73;27.63;;;;;;;-1.91;100.00;101306.38;5046467;28;20729;-62
2024/01/17 07:06:38;;;;;;;37.30;34.75;;;;;;;-1.95;100.00;101307.53;5046524;28;20064;-62
2024/01/17 07:09:05;;;;;;;34.50;32.40;;;;;;;-1.46;100.00;101310.00;5047556;28;20762;-57
2024/01/17 07:11:32;;;;;;;32.08;29.77;;;;;;;-1.10;100.00;101303.00;5047782;28;20048;-56
2024/01/17 07:14:00;;;;;;;35.38;32.88;;;;;;;-0.79;100.00;101304.09;5039183;28;20578;-62
2024/01/17 07:16:28;;;;;;;32.70;30.05;;;;;;;-0.77;100.00;101294.38;5047015;28;20056;-62
2024/01/17 07:18:55;;;;;;;34.17;31.88;;;;;;;-0.81;100.00;101297.34;5047626;28;20063;-57
2024/01/17 07:21:22;;;;;;;31.67;29.58;;;;;;;-0.66;100.00;101295.34;5047261;28;20065;-62
2024/01/17 07:23:49;;;;;;;35.35;33.08;;;;;;;-0.33;100.00;101281.44;5046440;28;20061;-62
2024/01/17 07:26:16;;;;;;;34.75;31.88;;;;;;;0.34;100.00;101283.84;5046100;28;20061;-59
2024/01/17 07:28:43;;;;;;;36.50;34.10;;;;;;;0.29;100.00;101277.31;5043324;28;20846;-64
2024/01/17 07:31:10;;;;;;;30.73;28.52;;;;;;;0.34;100.00;101262.94;5046343;28;20052;-59
2024/01/17 07:33:39;;;;;;;29.63;27.52;;;;;;;0.94;100.00;101264.94;5040785;28;20049;-59
2024/01/17 07:36:06;;;;;;;31.27;29.17;;;;;;;1.68;100.00;101262.88;5043380;28;20784;-57
2024/01/17 07:38:32;;;;;;;29.40;27.40;;;;;;;0.56;100.00;101255.94;5047253;28;20049;-57
2024/01/17 07:40:59;;;;;;;29.45;27.35;;;;;;;1.34;100.00;101249.31;5048108;28;20056;-57
2024/01/17 07:43:26;;;;;;;29.00;27.10;;;;;;;2.00;100.00;101256.63;5044850;28;20052;-59
2024/01/17 07:45:52;;;;;;;27.80;26.00;;;;;;;1.94;100.00;101255.34;5044558;28;20056;-65
2024/01/17 07:48:20;;;;;;;33.53;31.45;;;;;;;1.82;100.00;101249.41;5045656;28;20099;-64
2024/01/17 07:50:48;;;;;;;31.55;29.65;;;;;;;1.90;100.00;101248.72;5041163;28;20142;-64
2024/01/17 07:53:16;;;;;;;29.98;28.05;;;;;;;3.08;100.00;101235.28;5046703;28;20057;-65
2024/01/17 07:55:43;;;;;;;28.38;26.58;;;;;;;3.26;100.00;101240.63;5044716;28;20048;-65
2024/01/17 07:58:11;;;;;;;27.38;25.10;;;;;;;3.14;100.00;101232.09;5046544;28;20581;-65
2024/01/17 08:00:38;;;;;;;28.60;26.60;;;;;;;3.50;100.00;101239.25;5042586;28;20780;-60
2024/01/17 08:03:05;;;;;;;31.88;29.77;;;;;;;4.09;100.00;101238.72;5044560;28;20051;-59
2024/01/17 08:05:33;;;;;;;27.13;25.33;;;;;;;4.57;100.00;101240.09;5046730;28;20053;-60
2024/01/17 08:08:03;;;;;;;30.40;28.30;;;;;;;5.78;100.00;101237.34;5046794;28;20128;-64
2024/01/17 08:10:30;;;;;;;30.13;28.23;;;;;;;5.00;100.00;101242.81;5045511;28;20107;-60
2024/01/17 08:12:57;;;;;;;25.58;24.08;;;;;;;4.96;100.00;101233.56;5045898;28;20048;-60
2024/01/17 08:15:23;;;;;;;27.13;25.08;;;;;;;5.46;100.00;101227.53;5045836;28;20056;-59
2024/01/17 08:17:51;;;;;;;29.05;26.50;;;;;;;6.17;100.00;101221.78;5046518;28;20055;-60
2024/01/17 08:20:18;;;;;;;28.40;26.60;;;;;;;6.12;100.00;101215.34;5046358;28;20053;-65
2024/01/17 08:22:45;;;;;;;26.67;24.60;;;;;;;6.18;100.00;101212.88;5046637;28;20045;-65
2024/01/17 08:25:14;;;;;;;26.58;24.88;;;;;;;7.39;100.00;101209.28;5047285;28;20053;-59
2024/01/17 08:27:41;;;;;;;28.33;26.42;;;;;;;7.31;100.00;101218.03;5046567;28;20064;-60
2024/01/17 08:30:10;;;;;;;27.15;25.27;;;;;;;6.04;100.00;101234.59;5046423;28;20107;-60
2024/01/17 08:32:37;;;;;;;28.48;26.58;;;;;;;7.25;100.00;101226.66;5046334;28;20114;-60
2024/01/17 08:35:05;;;;;;;29.17;27.27;;;;;;;7.20;100.00;101230.81;5045849;28;20053;-60
2024/01/17 08:37:32;;;;;;;28.88;27.08;;;;;;;6.79;100.00;101231.75;5044891;28;20056;-60
2024/01/17 08:39:59;;;;;;;29.98;28.08;;;;;;;7.43;100.00;101225.59;5045419;28;20045;-65
2024/01/17 08:42:27;;;;;;;29.85;27.95;;;;;;;8.22;100.00;101229.72;5045398;28;20541;-60
2024/01/17 08:44:54;;;;;;;29.60;27.80;;;;;;;7.86;100.00;101239.25;5046022;28;20442;-60
2024/01/17 08:47:20;;;;;;;27.60;25.90;;;;;;;7.96;100.00;101235.38;5046142;28;20140;-60
2024/01/17 08:49:47;;;;;;;28.63;26.63;;;;;;;8.52;100.00;101242.25;5041530;28;20059;-60
2024/01/17 08:52:14;;;;;;;28.45;26.45;;;;;;;9.63;100.00;101226.22;5045989;28;20525;-60
2024/01/17 08:54:41;;;;;;;30.25;28.25;;;;;;;9.17;100.00;101228.31;5045110;28;20433;-60
2024/01/17 08:57:08;;;;;;;27.50;25.60;;;;;;;9.88;100.00;101223.22;5045709;28;20045;-60
2024/01/17 08:59:36;;;;;;;28.73;26.65;;;;;;;9.28;100.00;101222.53;5045094;28;20048;-65
2024/01/17 09:02:03;;;;;;;28.75;26.48;;;;;;;10.12;100.00;101207.94;5044058;28;20049;-65
2024/01/17 09:04:30;;;;;;;30.27;28.17;;;;;;;9.80;100.00;101210.06;5044336;28;20429;-65
2024/01/17 09:06:57;;;;;;;29.45;27.35;;;;;;;9.46;100.00;101195.63;5044624;28;20446;-60
2024/01/17 09:09:25;;;;;;;32.25;30.15;;;;;;;8.35;100.00;101186.78;5044353;28;20731;-60
2024/01/17 09:11:53;;;;;;;30.13;28.23;;;;;;;7.11;100.00;101180.66;5044510;28;20635;-60
2024/01/17 09:14:21;;;;;;;31.10;29.00;;;;;;;7.11;100.00;101172.75;5044919;28;20045;-60
2024/01/17 09:16:51;;;;;;;33.55;31.48;;;;;;;6.11;100.00;101180.22;5046152;28;20057;-64
2024/01/17 09:19:18;;;;;;;28.13;26.33;;;;;;;6.57;100.00;101169.13;5038461;28;20079;-63
2024/01/17 09:21:45;;;;;;;29.60;27.60;;;;;;;6.37;100.00;101169.47;5041016;28;20431;-58
2024/01/17 09:24:11;;;;;;;28.00;26.10;;;;;;;7.35;100.00;101163.03;5038976;28;20049;-58
2024/01/17 09:26:39;;;;;;;26.95;25.05;;;;;;;7.23;100.00;101167.06;5042588;28;20056;-57
2024/01/17 09:29:05;;;;;;;25.23;23.42;;;;;;;6.85;100.00;101157.16;5042630;28;20438;-62
2024/01/17 09:31:32;;;;;;;24.92;23.13;;;;;;;6.99;100.00;101147.72;5041154;28;20044;-63
2024/01/17 09:34:01;;;;;;;27.20;25.25;;;;;;;7.73;100.00;101152.56;5040696;28;20067;-58
2024/01/17 09:36:28;;;;;;;27.13;25.23;;;;;;;9.06;100.00;101147.44;5044192;28;20057;-58
2024/01/17 09:38:54;;;;;;;27.60;25.60;;;;;;;10.39;100.00;101151.41;5040521;28;20064;-63
2024/01/17 09:41:21;;;;;;;26.98;25.08;;;;;;;10.23;100.00;101152.47;5045038;28;20064;-63
2024/01/17 09:43:48;;;;;;;29.80;27.80;;;;;;;10.77;100.00;101149.19;5043217;28;20057;-58
2024/01/17 09:46:15;;;;;;;25.77;23.98;;;;;;;11.15;99.67;101142.59;5044566;28;20060;-63
2024/01/17 09:48:42;;;;;;;30.88;28.98;;;;;;;10.62;94.60;101145.84;5045901;28;20053;-58
2024/01/17 09:51:15;;;;;;;29.23;27.42;;;;;;;10.78;100.00;101131.41;5043174;28;20434;-63
2024/01/17 09:53:45;;;;;;;26.25;24.35;;;;;;;9.95;100.00;101130.41;5042361;28;20092;-63
2024/01/17 09:56:14;;;;;;;28.40;26.40;;;;;;;9.49;100.00;101126.31;5046574;28;20502;-64
2024/01/17 09:58:45;;;;;;;27.67;25.90;;;;;;;9.04;100.00;101114.19;5047640;28;20128;-58
2024/01/17 10:01:14;;;;;;;29.50;27.50;;;;;;;9.09;100.00;101119.75;5047363;28;20053;-63
2024/01/17 10:03:43;;;;;;;27.90;25.80;;;;;;;9.42;100.00;101106.88;5047927;28;20532;-58
2024/01/17 10:06:15;;;;;;;28.20;25.95;;;;;;;9.45;100.00;101095.06;5047206;28;20063;-58
2024/01/17 10:08:44;;;;;;;29.92;27.83;;;;;;;9.35;100.00;101101.50;5042724;28;20053;-63
2024/01/17 10:11:12;;;;;;;28.25;26.25;;;;;;;8.60;100.00;101100.00;5043951;28;20050;-63
2024/01/17 10:13:39;;;;;;;28.60;26.70;;;;;;;8.19;100.00;101103.03;5047295;28;20048;-63
2024/01/17 10:16:08;;;;;;;27.63;25.73;;;;;;;8.29;100.00;101101.97;5047209;28;20053;-63
2024/01/17 10:18:35;;;;;;;26.00;24.20;;;;;;;8.43;100.00;101098.53;5048007;28;20499;-57
2024/01/17 10:21:03;;;;;;;27.27;25.48;;;;;;;8.15;100.00;101093.03;5043301;28;20434;-58
2024/01/17 10:23:32;;;;;;;25.60;23.80;;;;;;;7.86;100.00;101094.59;5045346;28;20041;-58
2024/01/17 10:25:59;;;;;;;27.60;25.80;;;;;;;7.97;100.00;101088.88;5047612;28;20514;-58
2024/01/17 10:28:25;;;;;;;28.27;26.38;;;;;;;8.15;100.00;101085.91;5045536;28;20049;-63
2024/01/17 10:30:53;;;;;;;31.15;29.17;;;;;;;8.10;100.00;101077.66;5046318;28;20083;-63
2024/01/17 10:33:20;;;;;;;29.88;27.98;;;;;;;8.18;100.00;101084.72;5047818;28;20076;-63
2024/01/17 10:35:48;;;;;;;28.35;26.55;;;;;;;7.97;100.00;101080.13;5047485;28;20048;-58
2024/01/17 10:38:15;;;;;;;26.70;24.90;;;;;;;8.03;100.00;101079.41;5047359;28;20045;-58
2024/01/17 10:40:44;;;;;;;33.00;30.90;;;;;;;8.11;100.00;101074.03;5047718;28;20528;-63
2024/01/17 10:43:14;;;;;;;31.05;29.05;;;;;;;7.39;100.00;101071.84;5046170;28;20052;-64
2024/01/17 10:45:44;;;;;;;26.13;24.38;;;;;;;8.21;100.00;101066.66;5045532;28;20158;-58
2024/01/17 10:48:11;;;;;;;32.28;30.25;;;;;;;8.10;100.00;101061.81;5045000;28;20592;-63
2024/01/17 10:50:38;;;;;;;29.83;27.77;;;;;;;7.89;100.00;101045.81;5041189;28;20045;-58
2024/01/17 10:53:08;;;;;;;27.50;25.60;;;;;;;8.44;100.00;101029.56;5045158;28;20053;-58
2024/01/17 10:55:36;;;;;;;27.63;25.63;;;;;;;8.63;100.00;101025.50;5046473;28;20131;-57
2024/01/17 10:58:09;;;;;;;27.65;25.65;;;;;;;7.97;100.00;101017.47;5045693;28;20048;-63
2024/01/17 11:00:39;;;;;;;29.98;27.88;;;;;;;7.65;100.00;101012.50;5046439;28;20110;-63
2024/01/17 11:03:09;;;;;;;28.35;26.40;;;;;;;7.66;100.00;101025.53;5047426;28;20060;-63
2024/01/17 11:05:45;;;;;;;24.13;22.42;;;;;;;7.51;100.00;101020.22;5046336;28;20131;-58